sensor_id;sensor_type;location;lat;lon;timestamp;temperature;humidity
47600;DHT22;33323;52.124;6.018;2023-03-01T00:01:20;-2.00;99.90
47600;DHT22;33323;52.124;6.018;2023-03-01T00:03:49;-2.00;99.90
47600;DHT22;33323;52.124;6.018;2023-03-01T00:06:17;-2.20;99.90
47600;DHT22;33323;52.124;6.018;2023-03-01T00:08:45;-2.10;99.90
47600;DHT22;33323;52.124;6.018;2023-03-01T00:11:23;-2.10;99.90
47600;DHT22;33323;52.124;6.018;2023-03-01T00:13:57;-2.10;99.90
47600;DHT22;33323;52.124;6.018;2023-03-01T00:16:30;-2.20;99.90
47600;DHT22;33323;52.124;6.018;2023-03-01T00:19:00;-2.20;99.90
47600;DHT22;33323;52.124;6.018;2023-03-01T00:21:28;-2.20;99.90
47600;DHT22;33323;52.124;6.018;2023-03-01T00:23:55;-2.30;99.90
47600;DHT22;33323;52.124;6.018;2023-03-01T00:26:24;-2.30;99.90
47600;DHT22;33323;52.124;6.018;2023-03-01T00:28:53;-2.30;99.90
47600;DHT22;33323;52.124;6.018;2023-03-01T00:31:23;-2.30;99.90
47600;DHT22;33323;52.124;6.018;2023-03-01T00:33:56;-2.40;99.90
47600;DHT22;33323;52.124;6.018;2023-03-01T00:36:27;-2.50;99.90
47600;DHT22;33323;52.124;6.018;2023-03-01T00:38:59;-2.50;99.90
47600;DHT22;33323;52.124;6.018;2023-03-01T00:41:26;-2.50;99.90
47600;DHT22;33323;52.124;6.018;2023-03-01T00:43:54;-2.40;99.90
47600;DHT22;33323;52.124;6.018;2023-03-01T00:46:24;-2.50;99.90
47600;DHT22;33323;52.124;6.018;2023-03-01T00:48:53;-2.60;99.90
47600;DHT22;33323;52.124;6.018;2023-03-01T00:51:26;-2.70;99.90
47600;DHT22;33323;52.124;6.018;2023-03-01T00:53:57;-2.60;99.90
47600;DHT22;33323;52.124;6.018;2023-03-01T00:56:26;-2.60;99.90
47600;DHT22;33323;52.124;6.018;2023-03-01T00:58:54;-2.70;99.90
47600;DHT22;33323;52.124;6.018;2023-03-01T01:01:25;-2.70;99.90
47600;DHT22;33323;52.124;6.018;2023-03-01T01:04:01;-2.70;99.90
47600;DHT22;33323;52.124;6.018;2023-03-01T01:06:33;-2.80;99.90
47600;DHT22;33323;52.124;6.018;2023-03-01T01:09:04;-2.70;99.90
47600;DHT22;33323;52.124;6.018;2023-03-01T01:11:32;-2.70;99.90
47600;DHT22;33323;52.124;6.018;2023-03-01T01:13:59;-2.80;99.90
47600;DHT22;33323;52.124;6.018;2023-03-01T01:16:29;-2.80;99.90
47600;DHT22;33323;52.124;6.018;2023-03-01T01:18:57;-2.80;99.90
47600;DHT22;33323;52.124;6.018;2023-03-01T01:21:25;-2.80;99.90
47600;DHT22;33323;52.124;6.018;2023-03-01T01:23:52;-2.80;99.90
47600;DHT22;33323;52.124;6.018;2023-03-01T01:26:22;-2.80;99.90
47600;DHT22;33323;52.124;6.018;2023-03-01T01:29:01;-2.80;99.90
47600;DHT22;33323;52.124;6.018;2023-03-01T01:31:29;-2.80;99.90
47600;DHT22;33323;52.124;6.018;2023-03-01T01:33:59;-2.90;99.90
47600;DHT22;33323;52.124;6.018;2023-03-01T01:36:27;-2.90;99.90
47600;DHT22;33323;52.124;6.018;2023-03-01T01:38:55;-3.00;99.90
47600;DHT22;33323;52.124;6.018;2023-03-01T01:41:23;-3.10;99.90
47600;DHT22;33323;52.124;6.018;2023-03-01T01:46:49;-3.30;99.90
47600;DHT22;33323;52.124;6.018;2023-03-01T01:52:00;-3.50;99.90
47600;DHT22;33323;52.124;6.018;2023-03-01T01:57:40;-3.50;99.90
47600;DHT22;33323;52.124;6.018;2023-03-01T02:00:14;-3.40;99.90
47600;DHT22;33323;52.124;6.018;2023-03-01T02:02:44;-3.40;99.90
47600;DHT22;33323;52.124;6.018;2023-03-01T02:05:25;-3.40;99.90
47600;DHT22;33323;52.124;6.018;2023-03-01T02:08:01;-3.40;99.90
47600;DHT22;33323;52.124;6.018;2023-03-01T02:10:29;-3.40;99.90
47600;DHT22;33323;52.124;6.018;2023-03-01T02:13:00;-3.30;99.90
47600;DHT22;33323;52.124;6.018;2023-03-01T02:15:35;-3.30;99.90
47600;DHT22;33323;52.124;6.018;2023-03-01T02:18:04;-3.30;99.90
47600;DHT22;33323;52.124;6.018;2023-03-01T02:23:22;-3.30;99.90
47600;DHT22;33323;52.124;6.018;2023-03-01T02:26:01;-3.30;99.90
47600;DHT22;33323;52.124;6.018;2023-03-01T02:28:38;-3.30;99.90
47600;DHT22;33323;52.124;6.018;2023-03-01T02:31:09;-3.30;99.90
47600;DHT22;33323;52.124;6.018;2023-03-01T02:33:56;-3.30;99.90
47600;DHT22;33323;52.124;6.018;2023-03-01T02:36:25;-3.40;99.90
47600;DHT22;33323;52.124;6.018;2023-03-01T02:38:58;-3.40;99.90
47600;DHT22;33323;52.124;6.018;2023-03-01T02:41:28;-3.40;99.90
47600;DHT22;33323;52.124;6.018;2023-03-01T02:43:58;-3.30;99.90
47600;DHT22;33323;52.124;6.018;2023-03-01T02:46:26;-3.40;99.90
47600;DHT22;33323;52.124;6.018;2023-03-01T02:48:55;-3.40;99.90
47600;DHT22;33323;52.124;6.018;2023-03-01T02:54:53;-3.40;99.90
47600;DHT22;33323;52.124;6.018;2023-03-01T02:57:29;-3.40;99.90
47600;DHT22;33323;52.124;6.018;2023-03-01T02:59:59;-3.40;99.90
47600;DHT22;33323;52.124;6.018;2023-03-01T03:02:35;-3.40;99.90
47600;DHT22;33323;52.124;6.018;2023-03-01T03:05:26;-3.40;99.90
47600;DHT22;33323;52.124;6.018;2023-03-01T03:08:00;-3.40;99.90
47600;DHT22;33323;52.124;6.018;2023-03-01T03:10:37;-3.50;99.90
47600;DHT22;33323;52.124;6.018;2023-03-01T03:13:14;-3.50;99.90
47600;DHT22;33323;52.124;6.018;2023-03-01T03:15:43;-3.40;99.90
47600;DHT22;33323;52.124;6.018;2023-03-01T03:18:17;-3.40;99.90
47600;DHT22;33323;52.124;6.018;2023-03-01T03:20:46;-3.50;99.90
47600;DHT22;33323;52.124;6.018;2023-03-01T03:23:13;-3.60;99.90
47600;DHT22;33323;52.124;6.018;2023-03-01T03:25:40;-3.60;99.90
47600;DHT22;33323;52.124;6.018;2023-03-01T03:28:07;-3.60;99.90
47600;DHT22;33323;52.124;6.018;2023-03-01T03:30:39;-3.60;99.90
47600;DHT22;33323;52.124;6.018;2023-03-01T03:33:08;-3.60;99.90
47600;DHT22;33323;52.124;6.018;2023-03-01T03:35:45;-3.60;99.90
47600;DHT22;33323;52.124;6.018;2023-03-01T03:38:15;-3.60;99.90
47600;DHT22;33323;52.124;6.018;2023-03-01T03:40:45;-3.60;99.90
47600;DHT22;33323;52.124;6.018;2023-03-01T03:43:19;-3.70;99.90
47600;DHT22;33323;52.124;6.018;2023-03-01T03:45:50;-3.80;99.90
47600;DHT22;33323;52.124;6.018;2023-03-01T03:48:18;-3.70;99.90
47600;DHT22;33323;52.124;6.018;2023-03-01T03:50:50;-3.70;99.90
47600;DHT22;33323;52.124;6.018;2023-03-01T03:53:22;-3.70;99.90
47600;DHT22;33323;52.124;6.018;2023-03-01T03:55:50;-3.80;99.90
47600;DHT22;33323;52.124;6.018;2023-03-01T03:58:19;-3.80;99.90
47600;DHT22;33323;52.124;6.018;2023-03-01T04:00:51;-3.80;99.90
47600;DHT22;33323;52.124;6.018;2023-03-01T04:03:24;-3.90;99.90
47600;DHT22;33323;52.124;6.018;2023-03-01T04:05:53;-3.90;99.90
47600;DHT22;33323;52.124;6.018;2023-03-01T04:08:21;-3.90;99.90
47600;DHT22;33323;52.124;6.018;2023-03-01T04:10:51;-4.00;99.90
47600;DHT22;33323;52.124;6.018;2023-03-01T04:13:21;-4.00;99.90
47600;DHT22;33323;52.124;6.018;2023-03-01T04:15:52;-4.00;99.90
47600;DHT22;33323;52.124;6.018;2023-03-01T04:18:22;-3.90;99.90
47600;DHT22;33323;52.124;6.018;2023-03-01T04:20:50;-3.90;99.90
47600;DHT22;33323;52.124;6.018;2023-03-01T04:23:20;-3.90;99.90
47600;DHT22;33323;52.124;6.018;2023-03-01T04:25:53;-3.90;99.90
47600;DHT22;33323;52.124;6.018;2023-03-01T04:28:34;-4.00;99.90
47600;DHT22;33323;52.124;6.018;2023-03-01T04:31:08;-4.00;99.90
47600;DHT22;33323;52.124;6.018;2023-03-01T04:33:46;-4.10;99.90
47600;DHT22;33323;52.124;6.018;2023-03-01T04:36:15;-4.10;99.90
47600;DHT22;33323;52.124;6.018;2023-03-01T04:38:44;-4.10;99.90
47600;DHT22;33323;52.124;6.018;2023-03-01T04:41:18;-4.10;99.90
47600;DHT22;33323;52.124;6.018;2023-03-01T04:43:46;-4.10;99.90
47600;DHT22;33323;52.124;6.018;2023-03-01T04:46:17;-4.10;99.90
47600;DHT22;33323;52.124;6.018;2023-03-01T04:48:46;-4.10;99.90
47600;DHT22;33323;52.124;6.018;2023-03-01T04:51:15;-4.10;99.90
47600;DHT22;33323;52.124;6.018;2023-03-01T04:53:43;-4.10;99.90
47600;DHT22;33323;52.124;6.018;2023-03-01T04:56:11;-4.10;99.90
47600;DHT22;33323;52.124;6.018;2023-03-01T04:58:40;-4.10;99.90
47600;DHT22;33323;52.124;6.018;2023-03-01T05:01:13;-4.10;99.90
47600;DHT22;33323;52.124;6.018;2023-03-01T05:03:43;-4.10;99.90
47600;DHT22;33323;52.124;6.018;2023-03-01T05:06:11;-4.10;99.90
47600;DHT22;33323;52.124;6.018;2023-03-01T05:08:40;-4.10;99.90
47600;DHT22;33323;52.124;6.018;2023-03-01T05:11:07;-4.20;99.90
47600;DHT22;33323;52.124;6.018;2023-03-01T05:13:36;-4.30;99.90
47600;DHT22;33323;52.124;6.018;2023-03-01T05:16:05;-4.30;99.90
47600;DHT22;33323;52.124;6.018;2023-03-01T05:18:34;-4.30;99.90
47600;DHT22;33323;52.124;6.018;2023-03-01T05:21:04;-4.30;99.90
47600;DHT22;33323;52.124;6.018;2023-03-01T05:23:33;-4.40;99.90
47600;DHT22;33323;52.124;6.018;2023-03-01T05:26:02;-4.40;99.90
47600;DHT22;33323;52.124;6.018;2023-03-01T05:28:33;-4.40;99.90
47600;DHT22;33323;52.124;6.018;2023-03-01T05:31:00;-4.40;99.90
47600;DHT22;33323;52.124;6.018;2023-03-01T05:33:28;-4.50;99.90
47600;DHT22;33323;52.124;6.018;2023-03-01T05:35:59;-4.50;99.90
47600;DHT22;33323;52.124;6.018;2023-03-01T05:38:26;-4.50;99.90
47600;DHT22;33323;52.124;6.018;2023-03-01T05:40:53;-4.50;99.90
47600;DHT22;33323;52.124;6.018;2023-03-01T05:43:20;-4.60;99.90
47600;DHT22;33323;52.124;6.018;2023-03-01T05:45:47;-4.60;99.90
47600;DHT22;33323;52.124;6.018;2023-03-01T05:48:14;-4.60;99.90
47600;DHT22;33323;52.124;6.018;2023-03-01T05:50:43;-4.60;99.90
47600;DHT22;33323;52.124;6.018;2023-03-01T05:53:13;-4.50;99.90
47600;DHT22;33323;52.124;6.018;2023-03-01T05:55:45;-4.50;99.90
47600;DHT22;33323;52.124;6.018;2023-03-01T05:58:19;-4.50;99.90
47600;DHT22;33323;52.124;6.018;2023-03-01T06:00:47;-4.50;99.90
47600;DHT22;33323;52.124;6.018;2023-03-01T06:03:16;-4.50;99.90
47600;DHT22;33323;52.124;6.018;2023-03-01T06:05:44;-4.60;99.90
47600;DHT22;33323;52.124;6.018;2023-03-01T06:08:12;-4.60;99.90
47600;DHT22;33323;52.124;6.018;2023-03-01T06:10:40;-4.60;99.90
47600;DHT22;33323;52.124;6.018;2023-03-01T06:13:07;-4.60;99.90
47600;DHT22;33323;52.124;6.018;2023-03-01T06:15:34;-4.60;99.90
47600;DHT22;33323;52.124;6.018;2023-03-01T06:18:01;-4.80;99.90
47600;DHT22;33323;52.124;6.018;2023-03-01T06:20:29;-4.80;99.90
47600;DHT22;33323;52.124;6.018;2023-03-01T06:22:56;-4.80;99.90
47600;DHT22;33323;52.124;6.018;2023-03-01T06:25:25;-4.70;99.90
47600;DHT22;33323;52.124;6.018;2023-03-01T06:27:53;-4.70;99.90
47600;DHT22;33323;52.124;6.018;2023-03-01T06:30:21;-4.70;99.90
47600;DHT22;33323;52.124;6.018;2023-03-01T06:32:50;-4.70;99.90
47600;DHT22;33323;52.124;6.018;2023-03-01T06:35:18;-4.70;99.90
47600;DHT22;33323;52.124;6.018;2023-03-01T06:37:47;-4.80;99.90
47600;DHT22;33323;52.124;6.018;2023-03-01T06:40:15;-4.80;99.90
47600;DHT22;33323;52.124;6.018;2023-03-01T06:42:47;-4.80;99.90
47600;DHT22;33323;52.124;6.018;2023-03-01T06:45:17;-4.70;99.90
47600;DHT22;33323;52.124;6.018;2023-03-01T06:47:45;-4.70;99.90
47600;DHT22;33323;52.124;6.018;2023-03-01T06:50:13;-4.70;99.90
47600;DHT22;33323;52.124;6.018;2023-03-01T06:52:40;-4.60;99.90
47600;DHT22;33323;52.124;6.018;2023-03-01T06:55:07;-4.60;99.90
47600;DHT22;33323;52.124;6.018;2023-03-01T06:57:35;-4.60;99.90
47600;DHT22;33323;52.124;6.018;2023-03-01T07:00:03;-4.50;99.90
47600;DHT22;33323;52.124;6.018;2023-03-01T07:02:31;-4.40;99.90
47600;DHT22;33323;52.124;6.018;2023-03-01T07:04:58;-4.30;99.90
47600;DHT22;33323;52.124;6.018;2023-03-01T07:07:25;-4.30;99.90
47600;DHT22;33323;52.124;6.018;2023-03-01T07:09:52;-4.30;99.90
47600;DHT22;33323;52.124;6.018;2023-03-01T07:12:20;-4.20;99.90
47600;DHT22;33323;52.124;6.018;2023-03-01T07:14:47;-4.20;99.90
47600;DHT22;33323;52.124;6.018;2023-03-01T07:17:14;-4.20;99.90
47600;DHT22;33323;52.124;6.018;2023-03-01T07:19:41;-4.10;99.90
47600;DHT22;33323;52.124;6.018;2023-03-01T07:22:08;-4.10;99.90
47600;DHT22;33323;52.124;6.018;2023-03-01T07:24:35;-4.00;99.90
47600;DHT22;33323;52.124;6.018;2023-03-01T07:27:03;-4.00;99.90
47600;DHT22;33323;52.124;6.018;2023-03-01T07:29:30;-3.90;99.90
47600;DHT22;33323;52.124;6.018;2023-03-01T07:31:58;-3.80;99.90
47600;DHT22;33323;52.124;6.018;2023-03-01T07:34:25;-3.80;99.90
47600;DHT22;33323;52.124;6.018;2023-03-01T07:36:52;-3.70;99.90
47600;DHT22;33323;52.124;6.018;2023-03-01T07:39:19;-3.60;99.90
47600;DHT22;33323;52.124;6.018;2023-03-01T07:41:52;-3.60;99.90
47600;DHT22;33323;52.124;6.018;2023-03-01T07:44:21;-3.50;99.90
47600;DHT22;33323;52.124;6.018;2023-03-01T07:46:48;-3.50;99.90
47600;DHT22;33323;52.124;6.018;2023-03-01T07:49:19;-3.40;99.90
47600;DHT22;33323;52.124;6.018;2023-03-01T07:51:46;-3.30;99.90
47600;DHT22;33323;52.124;6.018;2023-03-01T07:54:13;-3.20;99.90
47600;DHT22;33323;52.124;6.018;2023-03-01T07:56:41;-3.20;99.90
47600;DHT22;33323;52.124;6.018;2023-03-01T07:59:08;-3.10;99.90
47600;DHT22;33323;52.124;6.018;2023-03-01T08:01:35;-3.00;99.90
47600;DHT22;33323;52.124;6.018;2023-03-01T08:04:02;-2.90;99.90
47600;DHT22;33323;52.124;6.018;2023-03-01T08:06:31;-2.80;99.90
47600;DHT22;33323;52.124;6.018;2023-03-01T08:09:00;-2.70;99.90
47600;DHT22;33323;52.124;6.018;2023-03-01T08:11:27;-2.70;99.90
47600;DHT22;33323;52.124;6.018;2023-03-01T08:13:55;-2.60;99.90
47600;DHT22;33323;52.124;6.018;2023-03-01T08:16:23;-2.50;99.90
47600;DHT22;33323;52.124;6.018;2023-03-01T08:18:50;-2.30;99.90
47600;DHT22;33323;52.124;6.018;2023-03-01T08:21:17;-2.10;99.90
47600;DHT22;33323;52.124;6.018;2023-03-01T08:23:45;-1.90;99.90
47600;DHT22;33323;52.124;6.018;2023-03-01T08:26:16;-1.60;99.90
47600;DHT22;33323;52.124;6.018;2023-03-01T08:28:46;-1.40;99.90
47600;DHT22;33323;52.124;6.018;2023-03-01T08:33:48;-1.00;99.90
47600;DHT22;33323;52.124;6.018;2023-03-01T08:36:18;-1.00;99.90
47600;DHT22;33323;52.124;6.018;2023-03-01T08:38:46;-0.80;99.90
47600;DHT22;33323;52.124;6.018;2023-03-01T08:41:13;-0.70;99.90
47600;DHT22;33323;52.124;6.018;2023-03-01T08:43:41;-0.70;99.90
47600;DHT22;33323;52.124;6.018;2023-03-01T08:46:08;-0.60;99.90
47600;DHT22;33323;52.124;6.018;2023-03-01T08:48:36;-0.40;99.90
47600;DHT22;33323;52.124;6.018;2023-03-01T08:51:11;-0.20;99.90
47600;DHT22;33323;52.124;6.018;2023-03-01T08:53:40;-0.10;99.90
47600;DHT22;33323;52.124;6.018;2023-03-01T08:56:08;0.10;99.90
47600;DHT22;33323;52.124;6.018;2023-03-01T08:58:37;0.20;99.90
47600;DHT22;33323;52.124;6.018;2023-03-01T09:01:10;0.30;99.90
47600;DHT22;33323;52.124;6.018;2023-03-01T09:03:37;0.40;99.90
47600;DHT22;33323;52.124;6.018;2023-03-01T09:06:06;0.40;99.90
47600;DHT22;33323;52.124;6.018;2023-03-01T09:08:35;0.40;99.90
47600;DHT22;33323;52.124;6.018;2023-03-01T09:11:05;0.50;99.90
47600;DHT22;33323;52.124;6.018;2023-03-01T09:13:33;0.70;99.90
47600;DHT22;33323;52.124;6.018;2023-03-01T09:16:03;1.00;99.90
47600;DHT22;33323;52.124;6.018;2023-03-01T09:18:32;1.20;99.90
47600;DHT22;33323;52.124;6.018;2023-03-01T09:21:08;1.50;99.90
47600;DHT22;33323;52.124;6.018;2023-03-01T09:23:41;1.70;99.90
47600;DHT22;33323;52.124;6.018;2023-03-01T09:26:13;1.90;99.90
47600;DHT22;33323;52.124;6.018;2023-03-01T09:28:43;2.10;99.90
47600;DHT22;33323;52.124;6.018;2023-03-01T09:31:14;2.20;99.90
47600;DHT22;33323;52.124;6.018;2023-03-01T09:33:42;2.50;99.90
47600;DHT22;33323;52.124;6.018;2023-03-01T09:36:17;2.60;99.90
47600;DHT22;33323;52.124;6.018;2023-03-01T09:38:46;2.80;99.90
47600;DHT22;33323;52.124;6.018;2023-03-01T09:43:48;3.20;99.90
47600;DHT22;33323;52.124;6.018;2023-03-01T09:46:23;3.20;99.90
47600;DHT22;33323;52.124;6.018;2023-03-01T09:49:00;3.30;99.90
47600;DHT22;33323;52.124;6.018;2023-03-01T09:51:32;3.40;99.90
47600;DHT22;33323;52.124;6.018;2023-03-01T09:54:02;3.50;99.90
47600;DHT22;33323;52.124;6.018;2023-03-01T09:56:37;3.60;99.90
47600;DHT22;33323;52.124;6.018;2023-03-01T10:04:45;3.90;99.90
47600;DHT22;33323;52.124;6.018;2023-03-01T10:10:31;4.30;99.90
47600;DHT22;33323;52.124;6.018;2023-03-01T10:13:10;4.50;99.90
47600;DHT22;33323;52.124;6.018;2023-03-01T10:15:45;4.40;99.90
47600;DHT22;33323;52.124;6.018;2023-03-01T10:18:19;4.50;99.90
47600;DHT22;33323;52.124;6.018;2023-03-01T10:20:59;4.50;99.90
47600;DHT22;33323;52.124;6.018;2023-03-01T10:23:29;4.40;99.90
47600;DHT22;33323;52.124;6.018;2023-03-01T10:29:03;4.60;99.90
47600;DHT22;33323;52.124;6.018;2023-03-01T10:31:48;4.80;99.90
47600;DHT22;33323;52.124;6.018;2023-03-01T10:34:26;4.80;99.90
47600;DHT22;33323;52.124;6.018;2023-03-01T10:36:58;4.80;99.90
47600;DHT22;33323;52.124;6.018;2023-03-01T10:39:31;4.80;99.90
47600;DHT22;33323;52.124;6.018;2023-03-01T10:49:58;5.10;99.90
47600;DHT22;33323;52.124;6.018;2023-03-01T10:52:35;5.20;99.90
47600;DHT22;33323;52.124;6.018;2023-03-01T10:55:39;5.00;99.90
47600;DHT22;33323;52.124;6.018;2023-03-01T11:01:01;5.20;99.90
47600;DHT22;33323;52.124;6.018;2023-03-01T11:03:36;5.00;99.90
47600;DHT22;33323;52.124;6.018;2023-03-01T11:06:24;5.30;99.90
47600;DHT22;33323;52.124;6.018;2023-03-01T11:08:52;5.40;99.90
47600;DHT22;33323;52.124;6.018;2023-03-01T11:11:31;5.40;99.90
47600;DHT22;33323;52.124;6.018;2023-03-01T11:14:07;5.30;99.90
47600;DHT22;33323;52.124;6.018;2023-03-01T11:17:12;5.40;99.90
47600;DHT22;33323;52.124;6.018;2023-03-01T11:19:42;5.80;99.90
47600;DHT22;33323;52.124;6.018;2023-03-01T11:22:21;5.70;99.90
47600;DHT22;33323;52.124;6.018;2023-03-01T11:24:54;5.60;99.90
47600;DHT22;33323;52.124;6.018;2023-03-01T11:27:39;5.60;99.90
47600;DHT22;33323;52.124;6.018;2023-03-01T11:33:42;5.70;99.90
47600;DHT22;33323;52.124;6.018;2023-03-01T11:39:33;5.80;99.90
47600;DHT22;33323;52.124;6.018;2023-03-01T11:42:15;5.80;99.90
47600;DHT22;33323;52.124;6.018;2023-03-01T11:44:48;5.80;99.90
47600;DHT22;33323;52.124;6.018;2023-03-01T11:47:25;5.70;99.90
47600;DHT22;33323;52.124;6.018;2023-03-01T11:50:26;5.80;99.90
47600;DHT22;33323;52.124;6.018;2023-03-01T11:53:01;5.90;99.90
47600;DHT22;33323;52.124;6.018;2023-03-01T11:58:43;5.90;99.90
47600;DHT22;33323;52.124;6.018;2023-03-01T12:12:53;6.00;99.90
47600;DHT22;33323;52.124;6.018;2023-03-01T12:18:21;6.00;99.90
47600;DHT22;33323;52.124;6.018;2023-03-01T12:21:00;6.20;99.90
47600;DHT22;33323;52.124;6.018;2023-03-01T12:26:38;6.20;99.90
47600;DHT22;33323;52.124;6.018;2023-03-01T12:30:30;6.30;99.90
47600;DHT22;33323;52.124;6.018;2023-03-01T12:32:47;6.30;99.90
47600;DHT22;33323;52.124;6.018;2023-03-01T12:36:08;6.30;99.90
47600;DHT22;33323;52.124;6.018;2023-03-01T12:44:54;6.40;99.90
47600;DHT22;33323;52.124;6.018;2023-03-01T12:50:41;6.60;99.90
47600;DHT22;33323;52.124;6.018;2023-03-01T12:56:39;6.50;99.90
47600;DHT22;33323;52.124;6.018;2023-03-01T12:59:24;6.50;99.90
47600;DHT22;33323;52.124;6.018;2023-03-01T13:02:32;6.60;99.90
47600;DHT22;33323;52.124;6.018;2023-03-01T13:08:47;6.60;99.90
47600;DHT22;33323;52.124;6.018;2023-03-01T13:11:20;6.80;99.90
47600;DHT22;33323;52.124;6.018;2023-03-01T13:13:49;6.50;99.90
47600;DHT22;33323;52.124;6.018;2023-03-01T13:16:39;6.50;99.90
47600;DHT22;33323;52.124;6.018;2023-03-01T13:19:20;6.80;99.90
47600;DHT22;33323;52.124;6.018;2023-03-01T13:21:50;6.80;99.90
47600;DHT22;33323;52.124;6.018;2023-03-01T13:27:09;6.60;99.90
47600;DHT22;33323;52.124;6.018;2023-03-01T13:32:26;6.90;99.90
47600;DHT22;33323;52.124;6.018;2023-03-01T13:37:46;6.90;99.90
47600;DHT22;33323;52.124;6.018;2023-03-01T13:42:49;6.80;99.90
47600;DHT22;33323;52.124;6.018;2023-03-01T13:45:42;6.70;99.90
47600;DHT22;33323;52.124;6.018;2023-03-01T13:48:24;6.90;99.90
47600;DHT22;33323;52.124;6.018;2023-03-01T13:51:00;7.00;99.90
47600;DHT22;33323;52.124;6.018;2023-03-01T13:53:45;7.20;99.90
47600;DHT22;33323;52.124;6.018;2023-03-01T13:58:59;7.10;99.90
47600;DHT22;33323;52.124;6.018;2023-03-01T14:01:34;6.90;99.90
47600;DHT22;33323;52.124;6.018;2023-03-01T14:04:03;6.90;99.90
47600;DHT22;33323;52.124;6.018;2023-03-01T14:06:47;6.90;99.90
47600;DHT22;33323;52.124;6.018;2023-03-01T14:09:25;6.80;99.90
47600;DHT22;33323;52.124;6.018;2023-03-01T14:15:31;6.90;99.90
47600;DHT22;33323;52.124;6.018;2023-03-01T14:18:18;6.80;99.90
47600;DHT22;33323;52.124;6.018;2023-03-01T14:20:49;6.90;99.90
47600;DHT22;33323;52.124;6.018;2023-03-01T14:23:23;6.90;99.90
47600;DHT22;33323;52.124;6.018;2023-03-01T14:25:53;6.90;99.90
47600;DHT22;33323;52.124;6.018;2023-03-01T14:30:56;6.90;99.90
47600;DHT22;33323;52.124;6.018;2023-03-01T14:33:32;7.00;99.90
47600;DHT22;33323;52.124;6.018;2023-03-01T14:36:04;6.90;99.90
47600;DHT22;33323;52.124;6.018;2023-03-01T14:38:43;7.00;99.90
47600;DHT22;33323;52.124;6.018;2023-03-01T14:41:15;7.00;99.90
47600;DHT22;33323;52.124;6.018;2023-03-01T14:43:51;6.90;99.90
47600;DHT22;33323;52.124;6.018;2023-03-01T14:46:38;6.90;99.90
47600;DHT22;33323;52.124;6.018;2023-03-01T14:49:11;7.00;99.90
47600;DHT22;33323;52.124;6.018;2023-03-01T14:51:46;7.00;99.90
47600;DHT22;33323;52.124;6.018;2023-03-01T14:54:24;6.90;99.90
47600;DHT22;33323;52.124;6.018;2023-03-01T14:56:54;6.90;99.90
47600;DHT22;33323;52.124;6.018;2023-03-01T14:59:24;6.90;99.90
47600;DHT22;33323;52.124;6.018;2023-03-01T15:01:54;7.00;99.90
47600;DHT22;33323;52.124;6.018;2023-03-01T15:04:23;7.00;99.90
47600;DHT22;33323;52.124;6.018;2023-03-01T15:06:55;7.00;99.90
47600;DHT22;33323;52.124;6.018;2023-03-01T15:09:22;6.90;99.90
47600;DHT22;33323;52.124;6.018;2023-03-01T15:11:49;7.00;99.90
47600;DHT22;33323;52.124;6.018;2023-03-01T15:16:55;6.90;99.90
47600;DHT22;33323;52.124;6.018;2023-03-01T15:19:24;6.90;99.90
47600;DHT22;33323;52.124;6.018;2023-03-01T15:21:54;6.90;99.90
47600;DHT22;33323;52.124;6.018;2023-03-01T15:24:26;6.90;99.90
47600;DHT22;33323;52.124;6.018;2023-03-01T15:27:01;6.80;99.90
47600;DHT22;33323;52.124;6.018;2023-03-01T15:29:33;6.90;99.90
47600;DHT22;33323;52.124;6.018;2023-03-01T15:32:32;6.90;99.90
47600;DHT22;33323;52.124;6.018;2023-03-01T15:35:32;6.90;99.90
47600;DHT22;33323;52.124;6.018;2023-03-01T15:40:56;6.90;99.90
47600;DHT22;33323;52.124;6.018;2023-03-01T15:43:54;6.90;99.90
47600;DHT22;33323;52.124;6.018;2023-03-01T15:46:34;6.90;99.90
47600;DHT22;33323;52.124;6.018;2023-03-01T15:49:23;6.80;99.90
47600;DHT22;33323;52.124;6.018;2023-03-01T15:52:25;6.80;99.90
47600;DHT22;33323;52.124;6.018;2023-03-01T15:55:05;6.70;99.90
47600;DHT22;33323;52.124;6.018;2023-03-01T15:57:33;6.80;99.90
47600;DHT22;33323;52.124;6.018;2023-03-01T16:00:00;6.80;99.90
47600;DHT22;33323;52.124;6.018;2023-03-01T16:02:30;6.70;99.90
47600;DHT22;33323;52.124;6.018;2023-03-01T16:04:57;6.70;99.90
47600;DHT22;33323;52.124;6.018;2023-03-01T16:07:24;6.60;99.90
47600;DHT22;33323;52.124;6.018;2023-03-01T16:09:53;6.60;99.90
47600;DHT22;33323;52.124;6.018;2023-03-01T16:12:20;6.50;99.90
47600;DHT22;33323;52.124;6.018;2023-03-01T16:14:47;6.50;99.90
47600;DHT22;33323;52.124;6.018;2023-03-01T16:17:15;6.50;99.90
47600;DHT22;33323;52.124;6.018;2023-03-01T16:19:42;6.40;99.90
47600;DHT22;33323;52.124;6.018;2023-03-01T16:22:10;6.40;99.90
47600;DHT22;33323;52.124;6.018;2023-03-01T16:24:37;6.30;99.90
47600;DHT22;33323;52.124;6.018;2023-03-01T16:27:04;6.30;99.90
47600;DHT22;33323;52.124;6.018;2023-03-01T16:29:32;6.20;99.90
47600;DHT22;33323;52.124;6.018;2023-03-01T16:32:01;6.20;99.90
47600;DHT22;33323;52.124;6.018;2023-03-01T16:34:28;6.10;99.90
47600;DHT22;33323;52.124;6.018;2023-03-01T16:36:55;6.00;99.90
47600;DHT22;33323;52.124;6.018;2023-03-01T16:39:22;6.00;99.90
47600;DHT22;33323;52.124;6.018;2023-03-01T16:41:50;5.80;99.90
47600;DHT22;33323;52.124;6.018;2023-03-01T16:44:17;5.80;99.90
47600;DHT22;33323;52.124;6.018;2023-03-01T16:46:44;5.70;99.90
47600;DHT22;33323;52.124;6.018;2023-03-01T16:49:11;5.60;99.90
47600;DHT22;33323;52.124;6.018;2023-03-01T16:51:38;5.50;99.90
47600;DHT22;33323;52.124;6.018;2023-03-01T16:54:05;5.40;99.90
47600;DHT22;33323;52.124;6.018;2023-03-01T16:56:32;5.40;99.90
47600;DHT22;33323;52.124;6.018;2023-03-01T16:59:01;5.30;99.90
47600;DHT22;33323;52.124;6.018;2023-03-01T17:01:32;5.20;99.90
47600;DHT22;33323;52.124;6.018;2023-03-01T17:04:10;5.10;99.90
47600;DHT22;33323;52.124;6.018;2023-03-01T17:06:38;5.10;99.90
47600;DHT22;33323;52.124;6.018;2023-03-01T17:09:05;5.00;99.90
47600;DHT22;33323;52.124;6.018;2023-03-01T17:11:32;4.90;99.90
47600;DHT22;33323;52.124;6.018;2023-03-01T17:13:59;4.90;99.90
47600;DHT22;33323;52.124;6.018;2023-03-01T17:16:26;4.80;99.90
47600;DHT22;33323;52.124;6.018;2023-03-01T17:18:54;4.70;99.90
47600;DHT22;33323;52.124;6.018;2023-03-01T17:21:21;4.60;99.90
47600;DHT22;33323;52.124;6.018;2023-03-01T17:23:48;4.60;99.90
47600;DHT22;33323;52.124;6.018;2023-03-01T17:26:16;4.50;99.90
47600;DHT22;33323;52.124;6.018;2023-03-01T17:28:43;4.50;99.90
47600;DHT22;33323;52.124;6.018;2023-03-01T17:31:10;4.30;99.90
47600;DHT22;33323;52.124;6.018;2023-03-01T17:33:37;4.30;99.90
47600;DHT22;33323;52.124;6.018;2023-03-01T17:36:04;4.20;99.90
47600;DHT22;33323;52.124;6.018;2023-03-01T17:38:32;4.20;99.90
47600;DHT22;33323;52.124;6.018;2023-03-01T17:40:59;4.10;99.90
47600;DHT22;33323;52.124;6.018;2023-03-01T17:43:26;4.00;99.90
47600;DHT22;33323;52.124;6.018;2023-03-01T17:45:54;3.90;99.90
47600;DHT22;33323;52.124;6.018;2023-03-01T17:48:22;3.80;99.90
47600;DHT22;33323;52.124;6.018;2023-03-01T17:50:51;3.70;99.90
47600;DHT22;33323;52.124;6.018;2023-03-01T17:53:18;3.70;99.90
47600;DHT22;33323;52.124;6.018;2023-03-01T17:55:45;3.60;99.90
47600;DHT22;33323;52.124;6.018;2023-03-01T17:58:15;3.60;99.90